sensor_id;sensor_type;location;lat;lon;timestamp;pressure;altitude;pressure_sealevel;temperature;humidity
19096;BME280;9680;52.520;13.332;2023-01-31T00:00:24;101063.41;;;3.27;73.67
19096;BME280;9680;52.520;13.332;2023-01-31T00:02:51;101075.44;;;3.27;74.01
19096;BME280;9680;52.520;13.332;2023-01-31T00:05:18;101079.75;;;3.25;73.95
19096;BME280;9680;52.520;13.332;2023-01-31T00:07:45;101077.16;;;3.28;74.03
19096;BME280;9680;52.520;13.332;2023-01-31T00:10:12;101072.00;;;3.23;74.37
19096;BME280;9680;52.520;13.332;2023-01-31T00:12:41;101061.72;;;3.22;74.32
19096;BME280;9680;52.520;13.332;2023-01-31T00:15:08;101075.47;;;3.20;74.65
19096;BME280;9680;52.520;13.332;2023-01-31T00:17:38;101082.31;;;3.17;74.87
19096;BME280;9680;52.520;13.332;2023-01-31T00:20:06;101084.88;;;3.17;74.96
19096;BME280;9680;52.520;13.332;2023-01-31T00:22:33;101086.59;;;3.23;74.34
19096;BME280;9680;52.520;13.332;2023-01-31T00:24:59;101086.59;;;3.23;74.57
19096;BME280;9680;52.520;13.332;2023-01-31T00:27:26;101089.19;;;3.19;74.65
19096;BME280;9680;52.520;13.332;2023-01-31T00:29:54;101078.88;;;3.15;74.94
19096;BME280;9680;52.520;13.332;2023-01-31T00:32:21;101103.78;;;3.14;74.89
19096;BME280;9680;52.520;13.332;2023-01-31T00:34:50;101107.22;;;3.13;74.79
19096;BME280;9680;52.520;13.332;2023-01-31T00:37:16;101126.09;;;3.11;74.79
19096;BME280;9680;52.520;13.332;2023-01-31T00:39:43;101127.81;;;3.16;74.72
19096;BME280;9680;52.520;13.332;2023-01-31T00:42:10;101122.66;;;3.12;74.72
19096;BME280;9680;52.520;13.332;2023-01-31T00:44:40;101114.94;;;3.15;74.79
19096;BME280;9680;52.520;13.332;2023-01-31T00:47:08;101132.09;;;3.13;74.99
19096;BME280;9680;52.520;13.332;2023-01-31T00:49:35;101121.78;;;3.19;75.15
19096;BME280;9680;52.520;13.332;2023-01-31T00:52:01;101127.78;;;3.29;75.15
19096;BME280;9680;52.520;13.332;2023-01-31T00:54:28;101126.06;;;3.34;74.70
19096;BME280;9680;52.520;13.332;2023-01-31T00:56:55;101135.50;;;3.44;73.99
19096;BME280;9680;52.520;13.332;2023-01-31T00:59:22;101150.09;;;3.50;73.74
19096;BME280;9680;52.520;13.332;2023-01-31T01:01:48;101144.03;;;3.59;73.86
19096;BME280;9680;52.520;13.332;2023-01-31T01:04:16;101156.06;;;3.64;73.63
19096;BME280;9680;52.520;13.332;2023-01-31T01:06:43;101161.22;;;3.72;73.41
19096;BME280;9680;52.520;13.332;2023-01-31T01:09:12;101166.34;;;3.75;73.14
19096;BME280;9680;52.520;13.332;2023-01-31T01:11:38;101157.72;;;3.81;72.87
19096;BME280;9680;52.520;13.332;2023-01-31T01:14:07;101162.88;;;3.81;72.64
19096;BME280;9680;52.520;13.332;2023-01-31T01:16:37;101162.03;;;3.84;72.16
19096;BME280;9680;52.520;13.332;2023-01-31T01:19:06;101162.00;;;3.85;72.24
19096;BME280;9680;52.520;13.332;2023-01-31T01:21:35;101160.28;;;3.89;71.97
19096;BME280;9680;52.520;13.332;2023-01-31T01:24:05;101169.72;;;3.88;71.99
19096;BME280;9680;52.520;13.332;2023-01-31T01:26:32;101155.13;;;3.87;72.11
19096;BME280;9680;52.520;13.332;2023-01-31T01:29:03;101169.72;;;3.88;71.76
19096;BME280;9680;52.520;13.332;2023-01-31T01:31:30;101178.34;;;3.89;71.65
19096;BME280;9680;52.520;13.332;2023-01-31T01:33:58;101183.47;;;3.92;71.51
19096;BME280;9680;52.520;13.332;2023-01-31T01:36:26;101182.63;;;3.88;71.80
19096;BME280;9680;52.520;13.332;2023-01-31T01:38:55;101175.75;;;3.92;71.96
19096;BME280;9680;52.520;13.332;2023-01-31T01:41:23;101185.16;;;3.94;71.51
19096;BME280;9680;52.520;13.332;2023-01-31T01:43:51;101194.63;;;3.92;71.06
19096;BME280;9680;52.520;13.332;2023-01-31T01:46:24;101192.06;;;3.92;71.22
19096;BME280;9680;52.520;13.332;2023-01-31T01:48:56;101196.34;;;3.97;70.97
19096;BME280;9680;52.520;13.332;2023-01-31T01:51:26;101210.97;;;3.96;71.12
19096;BME280;9680;52.520;13.332;2023-01-31T01:53:56;101198.94;;;3.87;71.38
19096;BME280;9680;52.520;13.332;2023-01-31T01:56:29;101217.00;;;3.84;71.58
19096;BME280;9680;52.520;13.332;2023-01-31T01:59:02;101215.28;;;3.83;71.79
19096;BME280;9680;52.520;13.332;2023-01-31T02:01:33;101217.88;;;3.88;71.53
19096;BME280;9680;52.520;13.332;2023-01-31T02:04:07;101214.41;;;3.84;71.89
19096;BME280;9680;52.520;13.332;2023-01-31T02:06:36;101223.84;;;3.88;71.75
19096;BME280;9680;52.520;13.332;2023-01-31T02:09:06;101234.19;;;3.87;71.76
19096;BME280;9680;52.520;13.332;2023-01-31T02:11:36;101237.63;;;3.87;71.72
19096;BME280;9680;52.520;13.332;2023-01-31T02:14:05;101233.31;;;3.91;71.88
19096;BME280;9680;52.520;13.332;2023-01-31T02:16:33;101223.00;;;3.94;71.72
19096;BME280;9680;52.520;13.332;2023-01-31T02:19:01;101228.13;;;3.96;72.05
19096;BME280;9680;52.520;13.332;2023-01-31T02:21:47;101236.75;;;3.96;71.69
19096;BME280;9680;52.520;13.332;2023-01-31T02:25:00;101245.31;;;3.93;71.84
19096;BME280;9680;52.520;13.332;2023-01-31T02:31:01;101265.09;;;3.85;71.71
19096;BME280;9680;52.520;13.332;2023-01-31T02:33:41;101259.13;;;3.82;71.81
19096;BME280;9680;52.520;13.332;2023-01-31T02:36:17;101268.56;;;3.79;71.73
19096;BME280;9680;52.520;13.332;2023-01-31T02:38:57;101278.91;;;3.73;71.97
19096;BME280;9680;52.520;13.332;2023-01-31T02:41:33;101281.47;;;3.59;72.08
19096;BME280;9680;52.520;13.332;2023-01-31T02:44:12;101281.47;;;3.45;72.52
19096;BME280;9680;52.520;13.332;2023-01-31T02:47:08;101281.47;;;3.31;73.04
19096;BME280;9680;52.520;13.332;2023-01-31T02:49:46;101284.00;;;3.22;73.37
19096;BME280;9680;52.520;13.332;2023-01-31T02:52:21;101284.00;;;3.16;73.84
19096;BME280;9680;52.520;13.332;2023-01-31T02:55:04;101274.56;;;3.09;73.84
19096;BME280;9680;52.520;13.332;2023-01-31T02:57:52;101281.44;;;3.02;74.47
19096;BME280;9680;52.520;13.332;2023-01-31T03:00:21;101280.53;;;2.98;74.72
19096;BME280;9680;52.520;13.332;2023-01-31T03:02:49;101276.22;;;2.92;75.11
19096;BME280;9680;52.520;13.332;2023-01-31T03:05:19;101281.38;;;2.88;75.45
19096;BME280;9680;52.520;13.332;2023-01-31T03:07:47;101285.66;;;2.86;75.56
19096;BME280;9680;52.520;13.332;2023-01-31T03:10:24;101275.34;;;2.81;76.15
19096;BME280;9680;52.520;13.332;2023-01-31T03:13:03;101274.50;;;2.78;76.29
19096;BME280;9680;52.520;13.332;2023-01-31T03:15:41;101275.34;;;2.78;76.49
19096;BME280;9680;52.520;13.332;2023-01-31T03:18:36;101270.19;;;2.75;76.62
19096;BME280;9680;52.520;13.332;2023-01-31T03:21:12;101279.63;;;2.71;77.20
19096;BME280;9680;52.520;13.332;2023-01-31T03:23:41;101275.31;;;2.67;77.36
19096;BME280;9680;52.520;13.332;2023-01-31T03:26:10;101277.03;;;2.70;77.54
19096;BME280;9680;52.520;13.332;2023-01-31T03:28:40;101271.03;;;2.68;77.62
19096;BME280;9680;52.520;13.332;2023-01-31T03:31:10;101297.59;;;2.64;77.93
19096;BME280;9680;52.520;13.332;2023-01-31T03:33:44;101291.56;;;2.63;77.97
19096;BME280;9680;52.520;13.332;2023-01-31T03:36:20;101293.31;;;2.62;78.16
19096;BME280;9680;52.520;13.332;2023-01-31T03:39:02;101304.44;;;2.60;78.43
19096;BME280;9680;52.520;13.332;2023-01-31T03:41:39;101301.88;;;2.58;78.38
19096;BME280;9680;52.520;13.332;2023-01-31T03:44:14;101302.69;;;2.56;78.66
19096;BME280;9680;52.520;13.332;2023-01-31T03:46:48;101318.97;;;2.55;78.98
19096;BME280;9680;52.520;13.332;2023-01-31T03:49:17;101311.28;;;2.56;79.21
19096;BME280;9680;52.520;13.332;2023-01-31T03:51:53;101318.13;;;2.51;79.30
19096;BME280;9680;52.520;13.332;2023-01-31T03:54:27;101318.09;;;2.50;79.48
19096;BME280;9680;52.520;13.332;2023-01-31T03:56:57;101310.38;;;2.50;79.80
19096;BME280;9680;52.520;13.332;2023-01-31T03:59:28;101325.81;;;2.48;79.81
19096;BME280;9680;52.520;13.332;2023-01-31T04:02:00;101336.13;;;2.51;80.04
19096;BME280;9680;52.520;13.332;2023-01-31T04:04:31;101332.69;;;2.52;80.05
19096;BME280;9680;52.520;13.332;2023-01-31T04:07:02;101327.56;;;2.52;80.06
19096;BME280;9680;52.520;13.332;2023-01-31T04:09:31;101322.41;;;2.54;79.87
19096;BME280;9680;52.520;13.332;2023-01-31T04:11:58;101320.69;;;2.56;79.97
19096;BME280;9680;52.520;13.332;2023-01-31T04:14:26;101325.84;;;2.54;80.27
19096;BME280;9680;52.520;13.332;2023-01-31T04:16:53;101329.28;;;2.55;80.44
19096;BME280;9680;52.520;13.332;2023-01-31T04:19:19;101332.69;;;2.52;80.34
19096;BME280;9680;52.520;13.332;2023-01-31T04:21:46;101330.13;;;2.49;80.44
19096;BME280;9680;52.520;13.332;2023-01-31T04:24:14;101328.41;;;2.51;80.72
19096;BME280;9680;52.520;13.332;2023-01-31T04:26:41;101319.81;;;2.47;81.17
19096;BME280;9680;52.520;13.332;2023-01-31T04:29:08;101324.94;;;2.44;80.88
19096;BME280;9680;52.520;13.332;2023-01-31T04:31:34;101321.50;;;2.42;80.96
19096;BME280;9680;52.520;13.332;2023-01-31T04:34:01;101322.34;;;2.40;81.43
19096;BME280;9680;52.520;13.332;2023-01-31T04:36:28;101329.19;;;2.36;81.33
19096;BME280;9680;52.520;13.332;2023-01-31T04:38:54;101333.47;;;2.36;81.52
19096;BME280;9680;52.520;13.332;2023-01-31T04:41:23;101336.06;;;2.36;81.72
19096;BME280;9680;52.520;13.332;2023-01-31T04:43:49;101339.47;;;2.35;81.87
19096;BME280;9680;52.520;13.332;2023-01-31T04:46:17;101363.47;;;2.35;81.87
19096;BME280;9680;52.520;13.332;2023-01-31T04:48:44;101366.06;;;2.37;81.95
19096;BME280;9680;52.520;13.332;2023-01-31T04:51:10;101368.63;;;2.38;81.77
19096;BME280;9680;52.520;13.332;2023-01-31T04:53:37;101367.75;;;2.36;82.12
19096;BME280;9680;52.520;13.332;2023-01-31T04:56:04;101378.09;;;2.41;82.16
19096;BME280;9680;52.520;13.332;2023-01-31T04:58:32;101372.94;;;2.45;82.32
19096;BME280;9680;52.520;13.332;2023-01-31T05:00:59;101373.84;;;2.51;81.93
19096;BME280;9680;52.520;13.332;2023-01-31T05:03:26;101379.84;;;2.50;82.19
19096;BME280;9680;52.520;13.332;2023-01-31T05:05:52;101371.28;;;2.49;82.17
19096;BME280;9680;52.520;13.332;2023-01-31T05:08:19;101369.53;;;2.46;81.98
19096;BME280;9680;52.520;13.332;2023-01-31T05:10:46;101369.56;;;2.48;82.17
19096;BME280;9680;52.520;13.332;2023-01-31T05:13:13;101364.41;;;2.48;82.40
19096;BME280;9680;52.520;13.332;2023-01-31T05:15:41;101361.84;;;2.53;82.53
19096;BME280;9680;52.520;13.332;2023-01-31T05:18:08;101360.13;;;2.55;82.54
19096;BME280;9680;52.520;13.332;2023-01-31T05:20:36;101367.88;;;2.56;82.14
19096;BME280;9680;52.520;13.332;2023-01-31T05:23:05;101358.44;;;2.55;82.08
19096;BME280;9680;52.520;13.332;2023-01-31T05:25:33;101356.72;;;2.56;82.45
19096;BME280;9680;52.520;13.332;2023-01-31T05:28:00;101364.44;;;2.59;82.41
19096;BME280;9680;52.520;13.332;2023-01-31T05:30:27;101362.75;;;2.62;82.61
19096;BME280;9680;52.520;13.332;2023-01-31T05:32:55;101367.09;;;2.73;82.85
19096;BME280;9680;52.520;13.332;2023-01-31T05:35:22;101369.72;;;2.85;82.70
19096;BME280;9680;52.520;13.332;2023-01-31T05:37:49;101361.16;;;2.92;82.36
19096;BME280;9680;52.520;13.332;2023-01-31T05:40:16;101372.38;;;3.02;82.13
19096;BME280;9680;52.520;13.332;2023-01-31T05:42:43;101376.69;;;3.11;81.68
19096;BME280;9680;52.520;13.332;2023-01-31T05:45:11;101380.16;;;3.19;81.38
19096;BME280;9680;52.520;13.332;2023-01-31T05:47:38;101386.16;;;3.25;81.11
19096;BME280;9680;52.520;13.332;2023-01-31T05:50:07;101381.91;;;3.30;80.93
19096;BME280;9680;52.520;13.332;2023-01-31T05:52:34;101378.47;;;3.37;80.87
19096;BME280;9680;52.520;13.332;2023-01-31T05:55:01;101387.06;;;3.39;80.53
19096;BME280;9680;52.520;13.332;2023-01-31T05:57:27;101380.19;;;3.41;80.47
19096;BME280;9680;52.520;13.332;2023-01-31T05:59:56;101381.91;;;3.45;80.55
19096;BME280;9680;52.520;13.332;2023-01-31T06:02:23;101387.06;;;3.48;80.42
19096;BME280;9680;52.520;13.332;2023-01-31T06:04:50;101397.38;;;3.48;80.57
19096;BME280;9680;52.520;13.332;2023-01-31T06:07:18;101406.84;;;3.54;80.42
19096;BME280;9680;52.520;13.332;2023-01-31T06:09:44;101389.66;;;3.52;80.28
19096;BME280;9680;52.520;13.332;2023-01-31T06:12:12;101384.50;;;3.52;80.37
19096;BME280;9680;52.520;13.332;2023-01-31T06:14:39;101386.25;;;3.57;80.16
19096;BME280;9680;52.520;13.332;2023-01-31T06:17:06;101383.66;;;3.59;80.19
19096;BME280;9680;52.520;13.332;2023-01-31T06:19:33;101393.97;;;3.67;79.98
19096;BME280;9680;52.520;13.332;2023-01-31T06:22:00;101390.56;;;3.66;79.98
19096;BME280;9680;52.520;13.332;2023-01-31T06:24:28;101388.84;;;3.70;79.98
19096;BME280;9680;52.520;13.332;2023-01-31T06:26:55;101403.44;;;3.74;79.97
19096;BME280;9680;52.520;13.332;2023-01-31T06:29:22;101409.47;;;3.77;79.69
19096;BME280;9680;52.520;13.332;2023-01-31T06:31:48;101402.59;;;3.73;79.66
19096;BME280;9680;52.520;13.332;2023-01-31T06:34:15;101412.03;;;3.74;79.56
19096;BME280;9680;52.520;13.332;2023-01-31T06:36:42;101406.00;;;3.74;79.53
19096;BME280;9680;52.520;13.332;2023-01-31T06:39:09;101411.19;;;3.75;79.68
19096;BME280;9680;52.520;13.332;2023-01-31T06:41:38;101422.34;;;3.76;79.56
19096;BME280;9680;52.520;13.332;2023-01-31T06:44:04;101411.19;;;3.75;79.61
19096;BME280;9680;52.520;13.332;2023-01-31T06:46:32;101410.34;;;3.79;79.70
19096;BME280;9680;52.520;13.332;2023-01-31T06:48:59;101410.34;;;3.86;80.05
19096;BME280;9680;52.520;13.332;2023-01-31T06:51:25;101415.50;;;3.89;79.74
19096;BME280;9680;52.520;13.332;2023-01-31T06:53:52;101412.91;;;3.90;79.82
19096;BME280;9680;52.520;13.332;2023-01-31T06:56:20;101417.22;;;3.98;79.85
19096;BME280;9680;52.520;13.332;2023-01-31T06:58:49;101412.91;;;3.98;79.65
19096;BME280;9680;52.520;13.332;2023-01-31T07:01:16;101412.91;;;4.01;79.72
19096;BME280;9680;52.520;13.332;2023-01-31T07:03:43;101418.94;;;4.06;79.77
19096;BME280;9680;52.520;13.332;2023-01-31T07:06:10;101426.69;;;4.05;79.84
19096;BME280;9680;52.520;13.332;2023-01-31T07:08:38;101423.25;;;4.00;80.08
19096;BME280;9680;52.520;13.332;2023-01-31T07:11:05;101419.78;;;4.02;80.17
19096;BME280;9680;52.520;13.332;2023-01-31T07:13:31;101418.94;;;4.06;80.49
19096;BME280;9680;52.520;13.332;2023-01-31T07:16:00;101399.16;;;4.10;80.47
19096;BME280;9680;52.520;13.332;2023-01-31T07:18:26;101390.56;;;4.16;80.51
19096;BME280;9680;52.520;13.332;2023-01-31T07:20:53;101391.41;;;4.21;80.57
19096;BME280;9680;52.520;13.332;2023-01-31T07:23:20;101399.13;;;4.24;80.43
19096;BME280;9680;52.520;13.332;2023-01-31T07:25:46;101403.44;;;4.23;80.56
19096;BME280;9680;52.520;13.332;2023-01-31T07:28:13;101398.28;;;4.23;80.67
19096;BME280;9680;52.520;13.332;2023-01-31T07:30:40;101401.72;;;4.24;80.95
19096;BME280;9680;52.520;13.332;2023-01-31T07:33:09;101404.28;;;4.30;80.87
19096;BME280;9680;52.520;13.332;2023-01-31T07:35:36;101405.16;;;4.37;80.87
19096;BME280;9680;52.520;13.332;2023-01-31T07:38:03;101399.16;;;4.36;80.64
19096;BME280;9680;52.520;13.332;2023-01-31T07:40:30;101399.16;;;4.36;80.63
19096;BME280;9680;52.520;13.332;2023-01-31T07:42:57;101400.88;;;4.34;80.66
19096;BME280;9680;52.520;13.332;2023-01-31T07:45:24;101412.03;;;4.32;80.92
19096;BME280;9680;52.520;13.332;2023-01-31T07:47:52;101399.13;;;4.32;80.97
19096;BME280;9680;52.520;13.332;2023-01-31T07:50:20;101395.69;;;4.41;81.08
19096;BME280;9680;52.520;13.332;2023-01-31T07:52:47;101399.13;;;4.35;80.74
19096;BME280;9680;52.520;13.332;2023-01-31T07:55:15;101390.56;;;4.34;80.96
19096;BME280;9680;52.520;13.332;2023-01-31T07:57:42;101406.03;;;4.34;80.99
19096;BME280;9680;52.520;13.332;2023-01-31T08:00:10;101395.69;;;4.39;81.27
19096;BME280;9680;52.520;13.332;2023-01-31T08:02:57;101398.25;;;4.42;80.87
19096;BME280;9680;52.520;13.332;2023-01-31T08:05:45;101391.41;;;4.43;80.83
19096;BME280;9680;52.520;13.332;2023-01-31T08:08:12;101397.41;;;4.48;80.72
19096;BME280;9680;52.520;13.332;2023-01-31T08:10:39;101387.06;;;4.51;81.07
19096;BME280;9680;52.520;13.332;2023-01-31T08:13:05;101392.22;;;4.54;80.74
19096;BME280;9680;52.520;13.332;2023-01-31T08:15:32;101387.03;;;4.66;81.08
19096;BME280;9680;52.520;13.332;2023-01-31T08:17:59;101387.00;;;4.76;80.26
19096;BME280;9680;52.520;13.332;2023-01-31T08:20:26;101393.88;;;4.77;80.17
19096;BME280;9680;52.520;13.332;2023-01-31T08:22:55;101388.72;;;4.71;80.26
19096;BME280;9680;52.520;13.332;2023-01-31T08:25:24;101384.41;;;4.77;80.48
19096;BME280;9680;52.520;13.332;2023-01-31T08:27:53;101380.94;;;4.83;80.45
19096;BME280;9680;52.520;13.332;2023-01-31T08:30:20;101374.06;;;4.84;80.46
19096;BME280;9680;52.520;13.332;2023-01-31T08:32:47;101371.47;;;4.85;80.46
19096;BME280;9680;52.520;13.332;2023-01-31T08:35:14;101373.19;;;4.88;80.59
19096;BME280;9680;52.520;13.332;2023-01-31T08:37:41;101370.59;;;4.88;80.77
19096;BME280;9680;52.520;13.332;2023-01-31T08:40:10;101368.00;;;4.91;80.97
19096;BME280;9680;52.520;13.332;2023-01-31T08:42:37;101365.44;;;4.91;80.88
19096;BME280;9680;52.520;13.332;2023-01-31T08:45:06;101368.03;;;4.86;81.10
19096;BME280;9680;52.520;13.332;2023-01-31T08:47:34;101363.72;;;4.90;81.57
19096;BME280;9680;52.520;13.332;2023-01-31T08:50:02;101369.72;;;4.93;81.16
19096;BME280;9680;52.520;13.332;2023-01-31T08:52:29;101371.44;;;4.93;81.06
19096;BME280;9680;52.520;13.332;2023-01-31T08:54:59;101358.50;;;5.02;81.15
19096;BME280;9680;52.520;13.332;2023-01-31T08:57:28;101369.66;;;5.09;80.92
19096;BME280;9680;52.520;13.332;2023-01-31T08:59:55;101361.06;;;5.07;80.30
19096;BME280;9680;52.520;13.332;2023-01-31T09:02:22;101357.63;;;5.08;80.55
19096;BME280;9680;52.520;13.332;2023-01-31T09:04:48;101355.84;;;5.16;80.45
19096;BME280;9680;52.520;13.332;2023-01-31T09:07:15;101359.25;;;5.21;80.27
19096;BME280;9680;52.520;13.332;2023-01-31T09:09:46;101354.91;;;5.25;80.09
19096;BME280;9680;52.520;13.332;2023-01-31T09:12:14;101354.06;;;5.28;79.90
19096;BME280;9680;52.520;13.332;2023-01-31T09:14:42;101356.66;;;5.23;79.82
19096;BME280;9680;52.520;13.332;2023-01-31T09:17:09;101347.22;;;5.20;79.79
19096;BME280;9680;52.520;13.332;2023-01-31T09:19:36;101344.63;;;5.16;79.60
19096;BME280;9680;52.520;13.332;2023-01-31T09:22:03;101330.84;;;5.20;79.60
19096;BME280;9680;52.520;13.332;2023-01-31T09:24:30;101332.53;;;5.25;79.67
19096;BME280;9680;52.520;13.332;2023-01-31T09:26:57;101341.97;;;5.30;79.01
19096;BME280;9680;52.520;13.332;2023-01-31T09:29:25;101333.38;;;5.26;78.89
19096;BME280;9680;52.520;13.332;2023-01-31T09:31:54;101328.19;;;5.35;79.01
19096;BME280;9680;52.520;13.332;2023-01-31T09:34:21;101330.69;;;5.43;78.42
19096;BME280;9680;52.520;13.332;2023-01-31T09:36:48;101318.63;;;5.47;78.33
19096;BME280;9680;52.520;13.332;2023-01-31T09:39:15;101321.19;;;5.48;77.86
19096;BME280;9680;52.520;13.332;2023-01-31T09:41:44;101319.38;;;5.58;78.16
19096;BME280;9680;52.520;13.332;2023-01-31T09:44:16;101321.88;;;5.71;77.99
19096;BME280;9680;52.520;13.332;2023-01-31T09:46:49;101320.84;;;5.87;77.51
19096;BME280;9680;52.520;13.332;2023-01-31T09:49:21;101310.47;;;5.92;77.05
19096;BME280;9680;52.520;13.332;2023-01-31T09:51:54;101307.00;;;6.01;76.89
19096;BME280;9680;52.520;13.332;2023-01-31T09:54:27;101299.06;;;6.16;76.72
19096;BME280;9680;52.520;13.332;2023-01-31T09:57:00;101302.41;;;6.26;76.02
19096;BME280;9680;52.520;13.332;2023-01-31T09:59:38;101301.53;;;6.27;75.62
19096;BME280;9680;52.520;13.332;2023-01-31T10:02:21;101289.63;;;6.10;74.71
19096;BME280;9680;52.520;13.332;2023-01-31T10:05:03;101287.84;;;6.16;74.95
19096;BME280;9680;52.520;13.332;2023-01-31T10:07:37;101286.94;;;6.21;75.03
19096;BME280;9680;52.520;13.332;2023-01-31T10:10:12;101271.38;;;6.24;74.39
19096;BME280;9680;52.520;13.332;2023-01-31T10:12:44;101273.91;;;6.32;74.67
19096;BME280;9680;52.520;13.332;2023-01-31T10:15:16;101267.00;;;6.31;73.66
19096;BME280;9680;52.520;13.332;2023-01-31T10:17:47;101266.06;;;6.38;73.93
19096;BME280;9680;52.520;13.332;2023-01-31T10:20:20;101263.47;;;6.38;73.89
19096;BME280;9680;52.520;13.332;2023-01-31T10:22:53;101259.09;;;6.44;73.82
19096;BME280;9680;52.520;13.332;2023-01-31T10:25:26;101256.50;;;6.44;73.47
19096;BME280;9680;52.520;13.332;2023-01-31T10:27:56;101251.31;;;6.44;73.43
19096;BME280;9680;52.520;13.332;2023-01-31T10:30:30;101252.34;;;6.30;73.34
19096;BME280;9680;52.520;13.332;2023-01-31T10:33:18;101243.84;;;6.19;73.69
19096;BME280;9680;52.520;13.332;2023-01-31T10:35:49;101233.66;;;6.05;74.52
19096;BME280;9680;52.520;13.332;2023-01-31T10:38:21;101218.13;;;6.06;75.21
19096;BME280;9680;52.520;13.332;2023-01-31T10:40:54;101223.19;;;6.16;75.54
19096;BME280;9680;52.520;13.332;2023-01-31T10:43:30;101228.19;;;6.28;75.83
19096;BME280;9680;52.520;13.332;2023-01-31T10:46:00;101227.16;;;6.43;75.34
19096;BME280;9680;52.520;13.332;2023-01-31T10:48:28;101211.59;;;6.48;75.39
19096;BME280;9680;52.520;13.332;2023-01-31T10:51:04;101212.34;;;6.56;75.09
19096;BME280;9680;52.520;13.332;2023-01-31T10:53:48;101212.44;;;6.48;74.72
19096;BME280;9680;52.520;13.332;2023-01-31T10:56:24;101206.41;;;6.46;74.79
19096;BME280;9680;52.520;13.332;2023-01-31T10:58:54;101205.56;;;6.46;74.55
19096;BME280;9680;52.520;13.332;2023-01-31T11:01:21;101188.16;;;6.55;74.74
19096;BME280;9680;52.520;13.332;2023-01-31T11:03:50;101188.97;;;6.61;74.47
19096;BME280;9680;52.520;13.332;2023-01-31T11:06:19;101185.34;;;6.73;74.57
19096;BME280;9680;52.520;13.332;2023-01-31T11:08:48;101179.03;;;6.91;73.12
19096;BME280;9680;52.520;13.332;2023-01-31T11:11:18;101166.88;;;6.94;73.03
19096;BME280;9680;52.520;13.332;2023-01-31T11:13:56;101170.38;;;6.92;73.02
19096;BME280;9680;52.520;13.332;2023-01-31T11:16:24;101153.28;;;6.80;72.43
19096;BME280;9680;52.520;13.332;2023-01-31T11:18:53;101166.53;;;6.60;72.50
19096;BME280;9680;52.520;13.332;2023-01-31T11:21:24;101153.75;;;6.49;72.90
19096;BME280;9680;52.520;13.332;2023-01-31T11:23:56;101145.25;;;6.39;73.59
19096;BME280;9680;52.520;13.332;2023-01-31T11:26:27;101134.91;;;6.39;74.08
19096;BME280;9680;52.520;13.332;2023-01-31T11:29:00;101117.63;;;6.43;74.00
19096;BME280;9680;52.520;13.332;2023-01-31T11:31:30;101121.03;;;6.43;74.63
19096;BME280;9680;52.520;13.332;2023-01-31T11:33:59;101114.09;;;6.47;74.67
19096;BME280;9680;52.520;13.332;2023-01-31T11:36:35;101101.09;;;6.51;74.81
19096;BME280;9680;52.520;13.332;2023-01-31T11:39:23;101110.50;;;6.57;75.08
19096;BME280;9680;52.520;13.332;2023-01-31T11:42:04;101098.31;;;6.64;75.18
19096;BME280;9680;52.520;13.332;2023-01-31T11:44:54;101092.28;;;6.65;74.76
19096;BME280;9680;52.520;13.332;2023-01-31T11:47:26;101088.75;;;6.67;75.00
19096;BME280;9680;52.520;13.332;2023-01-31T11:49:54;101079.28;;;6.68;74.84
19096;BME280;9680;52.520;13.332;2023-01-31T11:52:28;101084.63;;;6.57;74.84
19096;BME280;9680;52.520;13.332;2023-01-31T11:54:57;101082.91;;;6.54;75.11
19096;BME280;9680;52.520;13.332;2023-01-31T11:57:27;101073.44;;;6.55;75.10
19096;BME280;9680;52.520;13.332;2023-01-31T11:59:57;101066.59;;;6.51;75.86
19096;BME280;9680;52.520;13.332;2023-01-31T12:02:34;101047.50;;;6.58;75.23
19096;BME280;9680;52.520;13.332;2023-01-31T12:05:08;101035.44;;;6.57;75.53
19096;BME280;9680;52.520;13.332;2023-01-31T12:07:46;101019.97;;;6.52;75.13
19096;BME280;9680;52.520;13.332;2023-01-31T12:10:39;101016.59;;;6.49;75.38
19096;BME280;9680;52.520;13.332;2023-01-31T12:13:15;101007.88;;;6.53;75.78
19096;BME280;9680;52.520;13.332;2023-01-31T12:15:46;101008.78;;;6.52;75.89
19096;BME280;9680;52.520;13.332;2023-01-31T12:18:20;100995.88;;;6.49;76.05
19096;BME280;9680;52.520;13.332;2023-01-31T12:20:57;100993.34;;;6.44;76.30
19096;BME280;9680;52.520;13.332;2023-01-31T12:23:35;100992.56;;;6.39;76.66
19096;BME280;9680;52.520;13.332;2023-01-31T12:26:10;100991.69;;;6.40;76.75
19096;BME280;9680;52.520;13.332;2023-01-31T12:28:53;100986.56;;;6.38;76.96
19096;BME280;9680;52.520;13.332;2023-01-31T12:31:33;100979.69;;;6.36;77.41
19096;BME280;9680;52.520;13.332;2023-01-31T12:34:12;100975.38;;;6.36;77.57
19096;BME280;9680;52.520;13.332;2023-01-31T12:36:55;100973.63;;;6.38;77.92
19096;BME280;9680;52.520;13.332;2023-01-31T12:39:42;100960.69;;;6.38;78.10
19096;BME280;9680;52.520;13.332;2023-01-31T12:42:27;100954.66;;;6.38;78.47
19096;BME280;9680;52.520;13.332;2023-01-31T12:45:07;100951.22;;;6.36;78.58
19096;BME280;9680;52.520;13.332;2023-01-31T12:47:55;100945.34;;;6.28;78.75
19096;BME280;9680;52.520;13.332;2023-01-31T12:50:29;100944.66;;;6.16;78.92
19096;BME280;9680;52.520;13.332;2023-01-31T12:53:26;100940.53;;;6.04;79.54
19096;BME280;9680;52.520;13.332;2023-01-31T12:56:05;100932.94;;;5.90;80.11
19096;BME280;9680;52.520;13.332;2023-01-31T12:58:41;100925.31;;;5.82;80.70
19096;BME280;9680;52.520;13.332;2023-01-31T13:01:13;100928.88;;;5.74;81.14
19096;BME280;9680;52.520;13.332;2023-01-31T13:04:03;100919.63;;;5.59;82.08
19096;BME280;9680;52.520;13.332;2023-01-31T13:06:36;100920.53;;;5.54;82.86
19096;BME280;9680;52.520;13.332;2023-01-31T13:09:09;100926.59;;;5.53;83.19
19096;BME280;9680;52.520;13.332;2023-01-31T13:11:43;100922.31;;;5.51;83.67
19096;BME280;9680;52.520;13.332;2023-01-31T13:14:14;100913.66;;;5.55;84.02
19096;BME280;9680;52.520;13.332;2023-01-31T13:16:46;100924.78;;;5.59;84.43
19096;BME280;9680;52.520;13.332;2023-01-31T13:19:21;100913.56;;;5.61;84.44
19096;BME280;9680;52.520;13.332;2023-01-31T13:21:53;100914.38;;;5.65;84.76